sensor_id;sensor_type;location;lat;lon;timestamp;P1;durP1;ratioP1;P2;durP2;ratioP2
27857;SDS011;16852;51.446;6.528;2023-01-16T00:00:34;3.55;;;1.05;;
27857;SDS011;16852;51.446;6.528;2023-01-16T00:02:35;5.18;;;1.20;;
27857;SDS011;16852;51.446;6.528;2023-01-16T00:04:36;2.35;;;1.15;;
27857;SDS011;16852;51.446;6.528;2023-01-16T00:06:36;8.55;;;1.40;;
27857;SDS011;16852;51.446;6.528;2023-01-16T00:08:37;6.20;;;1.35;;
27857;SDS011;16852;51.446;6.528;2023-01-16T00:10:38;3.70;;;1.30;;
27857;SDS011;16852;51.446;6.528;2023-01-16T00:12:39;4.93;;;1.35;;
27857;SDS011;16852;51.446;6.528;2023-01-16T00:14:39;4.80;;;1.50;;
27857;SDS011;16852;51.446;6.528;2023-01-16T00:16:40;7.25;;;1.33;;
27857;SDS011;16852;51.446;6.528;2023-01-16T00:18:40;4.35;;;1.23;;
27857;SDS011;16852;51.446;6.528;2023-01-16T00:20:41;4.18;;;0.95;;
27857;SDS011;16852;51.446;6.528;2023-01-16T00:22:42;4.10;;;1.23;;
27857;SDS011;16852;51.446;6.528;2023-01-16T00:24:43;4.50;;;1.45;;
27857;SDS011;16852;51.446;6.528;2023-01-16T00:26:43;4.95;;;1.20;;
27857;SDS011;16852;51.446;6.528;2023-01-16T00:28:44;4.15;;;1.20;;
27857;SDS011;16852;51.446;6.528;2023-01-16T00:30:44;3.65;;;1.10;;
27857;SDS011;16852;51.446;6.528;2023-01-16T00:32:46;3.67;;;0.80;;
27857;SDS011;16852;51.446;6.528;2023-01-16T00:34:46;3.60;;;0.75;;
27857;SDS011;16852;51.446;6.528;2023-01-16T00:36:47;3.92;;;1.13;;
27857;SDS011;16852;51.446;6.528;2023-01-16T00:38:48;6.53;;;1.70;;
27857;SDS011;16852;51.446;6.528;2023-01-16T00:40:49;11.45;;;1.42;;
27857;SDS011;16852;51.446;6.528;2023-01-16T00:42:49;4.60;;;1.20;;
27857;SDS011;16852;51.446;6.528;2023-01-16T00:44:50;5.22;;;1.45;;
27857;SDS011;16852;51.446;6.528;2023-01-16T00:46:50;3.80;;;1.30;;
27857;SDS011;16852;51.446;6.528;2023-01-16T00:48:51;6.35;;;1.88;;
27857;SDS011;16852;51.446;6.528;2023-01-16T00:50:52;7.75;;;1.50;;
27857;SDS011;16852;51.446;6.528;2023-01-16T00:52:52;5.38;;;1.20;;
27857;SDS011;16852;51.446;6.528;2023-01-16T00:54:53;6.30;;;1.13;;
27857;SDS011;16852;51.446;6.528;2023-01-16T00:56:53;7.28;;;1.98;;
27857;SDS011;16852;51.446;6.528;2023-01-16T00:58:54;6.57;;;1.73;;
27857;SDS011;16852;51.446;6.528;2023-01-16T01:00:54;4.90;;;1.63;;
27857;SDS011;16852;51.446;6.528;2023-01-16T01:02:55;4.95;;;1.38;;
27857;SDS011;16852;51.446;6.528;2023-01-16T01:04:55;4.47;;;1.27;;
27857;SDS011;16852;51.446;6.528;2023-01-16T01:06:56;4.07;;;1.27;;
27857;SDS011;16852;51.446;6.528;2023-01-16T01:08:57;5.75;;;1.55;;
27857;SDS011;16852;51.446;6.528;2023-01-16T01:10:57;4.00;;;1.35;;
27857;SDS011;16852;51.446;6.528;2023-01-16T01:13:05;4.38;;;1.17;;
27857;SDS011;16852;51.446;6.528;2023-01-16T01:15:06;7.47;;;1.20;;
27857;SDS011;16852;51.446;6.528;2023-01-16T01:17:07;7.00;;;1.38;;
27857;SDS011;16852;51.446;6.528;2023-01-16T01:19:09;7.03;;;1.80;;
27857;SDS011;16852;51.446;6.528;2023-01-16T01:21:10;8.68;;;1.98;;
27857;SDS011;16852;51.446;6.528;2023-01-16T01:23:10;6.72;;;1.55;;
27857;SDS011;16852;51.446;6.528;2023-01-16T01:25:11;6.35;;;1.60;;
27857;SDS011;16852;51.446;6.528;2023-01-16T01:27:12;6.50;;;1.42;;
27857;SDS011;16852;51.446;6.528;2023-01-16T01:29:12;6.00;;;1.40;;
27857;SDS011;16852;51.446;6.528;2023-01-16T01:31:13;4.80;;;1.60;;
27857;SDS011;16852;51.446;6.528;2023-01-16T01:33:14;5.05;;;1.42;;
27857;SDS011;16852;51.446;6.528;2023-01-16T01:35:14;6.40;;;1.70;;
27857;SDS011;16852;51.446;6.528;2023-01-16T01:37:17;4.68;;;1.25;;
27857;SDS011;16852;51.446;6.528;2023-01-16T01:39:18;5.47;;;1.10;;
27857;SDS011;16852;51.446;6.528;2023-01-16T01:41:18;7.45;;;1.58;;
27857;SDS011;16852;51.446;6.528;2023-01-16T01:43:19;4.82;;;1.50;;
27857;SDS011;16852;51.446;6.528;2023-01-16T01:45:22;3.97;;;1.05;;
27857;SDS011;16852;51.446;6.528;2023-01-16T01:47:29;5.75;;;1.40;;
27857;SDS011;16852;51.446;6.528;2023-01-16T01:49:37;5.60;;;1.55;;
27857;SDS011;16852;51.446;6.528;2023-01-16T01:51:38;3.55;;;1.13;;
27857;SDS011;16852;51.446;6.528;2023-01-16T01:53:46;3.22;;;1.20;;
27857;SDS011;16852;51.446;6.528;2023-01-16T01:55:52;4.38;;;1.33;;
27857;SDS011;16852;51.446;6.528;2023-01-16T01:57:54;3.30;;;1.50;;
27857;SDS011;16852;51.446;6.528;2023-01-16T02:00:00;3.53;;;1.30;;
27857;SDS011;16852;51.446;6.528;2023-01-16T02:02:08;2.97;;;1.10;;
27857;SDS011;16852;51.446;6.528;2023-01-16T02:04:13;5.40;;;1.33;;
27857;SDS011;16852;51.446;6.528;2023-01-16T02:06:19;5.45;;;1.40;;
27857;SDS011;16852;51.446;6.528;2023-01-16T02:08:22;5.38;;;1.25;;
27857;SDS011;16852;51.446;6.528;2023-01-16T02:10:30;8.23;;;1.80;;
27857;SDS011;16852;51.446;6.528;2023-01-16T02:12:35;3.13;;;1.05;;
27857;SDS011;16852;51.446;6.528;2023-01-16T02:14:40;4.90;;;1.27;;
27857;SDS011;16852;51.446;6.528;2023-01-16T02:16:42;1.95;;;0.82;;
27857;SDS011;16852;51.446;6.528;2023-01-16T02:19:03;5.45;;;1.40;;
27857;SDS011;16852;51.446;6.528;2023-01-16T02:21:25;5.22;;;1.20;;
27857;SDS011;16852;51.446;6.528;2023-01-16T02:28:51;4.35;;;1.10;;
27857;SDS011;16852;51.446;6.528;2023-01-16T02:43:12;4.30;;;1.05;;
27857;SDS011;16852;51.446;6.528;2023-01-16T02:47:41;5.03;;;1.20;;
27857;SDS011;16852;51.446;6.528;2023-01-16T02:52:21;6.07;;;1.15;;
27857;SDS011;16852;51.446;6.528;2023-01-16T02:54:41;6.72;;;1.25;;
27857;SDS011;16852;51.446;6.528;2023-01-16T02:56:54;3.63;;;1.10;;
27857;SDS011;16852;51.446;6.528;2023-01-16T02:59:01;6.18;;;1.33;;
27857;SDS011;16852;51.446;6.528;2023-01-16T03:01:02;4.00;;;1.13;;
27857;SDS011;16852;51.446;6.528;2023-01-16T03:03:03;4.57;;;1.65;;
27857;SDS011;16852;51.446;6.528;2023-01-16T03:05:03;3.30;;;0.80;;
27857;SDS011;16852;51.446;6.528;2023-01-16T03:14:36;2.70;;;0.80;;
27857;SDS011;16852;51.446;6.528;2023-01-16T03:21:41;5.90;;;0.98;;
27857;SDS011;16852;51.446;6.528;2023-01-16T03:24:07;3.17;;;1.17;;
27857;SDS011;16852;51.446;6.528;2023-01-16T03:26:30;2.50;;;0.80;;
27857;SDS011;16852;51.446;6.528;2023-01-16T03:28:45;2.35;;;0.82;;
27857;SDS011;16852;51.446;6.528;2023-01-16T03:31:03;3.83;;;1.50;;
27857;SDS011;16852;51.446;6.528;2023-01-16T03:38:03;2.83;;;0.70;;
27857;SDS011;16852;51.446;6.528;2023-01-16T03:40:07;2.92;;;0.75;;
27857;SDS011;16852;51.446;6.528;2023-01-16T03:44:45;5.18;;;0.70;;
27857;SDS011;16852;51.446;6.528;2023-01-16T03:46:51;3.88;;;0.80;;
27857;SDS011;16852;51.446;6.528;2023-01-16T03:51:12;4.85;;;0.90;;
27857;SDS011;16852;51.446;6.528;2023-01-16T03:53:18;4.40;;;0.80;;
27857;SDS011;16852;51.446;6.528;2023-01-16T03:55:31;3.63;;;0.88;;
27857;SDS011;16852;51.446;6.528;2023-01-16T03:57:59;3.10;;;0.68;;
27857;SDS011;16852;51.446;6.528;2023-01-16T04:00:07;2.92;;;0.98;;
27857;SDS011;16852;51.446;6.528;2023-01-16T04:04:23;3.47;;;0.88;;
27857;SDS011;16852;51.446;6.528;2023-01-16T04:06:35;6.63;;;1.45;;
27857;SDS011;16852;51.446;6.528;2023-01-16T04:08:47;2.72;;;0.95;;
27857;SDS011;16852;51.446;6.528;2023-01-16T04:10:50;2.95;;;1.10;;
27857;SDS011;16852;51.446;6.528;2023-01-16T04:12:59;5.22;;;0.93;;
27857;SDS011;16852;51.446;6.528;2023-01-16T04:15:05;4.43;;;1.20;;
27857;SDS011;16852;51.446;6.528;2023-01-16T04:17:08;2.30;;;0.93;;
27857;SDS011;16852;51.446;6.528;2023-01-16T04:19:11;2.53;;;0.75;;
27857;SDS011;16852;51.446;6.528;2023-01-16T04:21:13;2.72;;;0.73;;
27857;SDS011;16852;51.446;6.528;2023-01-16T04:23:13;1.45;;;0.68;;
27857;SDS011;16852;51.446;6.528;2023-01-16T04:25:16;3.15;;;0.80;;
27857;SDS011;16852;51.446;6.528;2023-01-16T04:27:18;2.50;;;0.77;;
27857;SDS011;16852;51.446;6.528;2023-01-16T04:29:19;3.03;;;0.73;;
27857;SDS011;16852;51.446;6.528;2023-01-16T04:31:21;3.70;;;0.90;;
27857;SDS011;16852;51.446;6.528;2023-01-16T04:33:23;2.13;;;0.80;;
27857;SDS011;16852;51.446;6.528;2023-01-16T04:35:23;2.83;;;0.88;;
27857;SDS011;16852;51.446;6.528;2023-01-16T04:37:24;1.70;;;0.80;;
27857;SDS011;16852;51.446;6.528;2023-01-16T04:39:24;2.30;;;0.82;;
27857;SDS011;16852;51.446;6.528;2023-01-16T04:41:25;3.45;;;0.80;;
27857;SDS011;16852;51.446;6.528;2023-01-16T04:43:38;1.98;;;0.70;;
27857;SDS011;16852;51.446;6.528;2023-01-16T04:45:38;3.60;;;1.08;;
27857;SDS011;16852;51.446;6.528;2023-01-16T04:47:44;2.97;;;0.80;;
27857;SDS011;16852;51.446;6.528;2023-01-16T04:49:46;2.65;;;0.95;;
27857;SDS011;16852;51.446;6.528;2023-01-16T04:51:46;4.22;;;0.88;;
27857;SDS011;16852;51.446;6.528;2023-01-16T04:53:47;2.70;;;0.70;;
27857;SDS011;16852;51.446;6.528;2023-01-16T04:55:48;2.00;;;0.73;;
27857;SDS011;16852;51.446;6.528;2023-01-16T04:57:48;1.55;;;0.60;;
27857;SDS011;16852;51.446;6.528;2023-01-16T04:59:49;3.58;;;0.98;;
27857;SDS011;16852;51.446;6.528;2023-01-16T05:01:49;5.20;;;0.68;;
27857;SDS011;16852;51.446;6.528;2023-01-16T05:03:50;2.72;;;0.70;;
27857;SDS011;16852;51.446;6.528;2023-01-16T05:05:51;3.58;;;0.88;;
27857;SDS011;16852;51.446;6.528;2023-01-16T05:07:51;3.55;;;0.82;;
27857;SDS011;16852;51.446;6.528;2023-01-16T05:10:10;2.10;;;0.68;;
27857;SDS011;16852;51.446;6.528;2023-01-16T05:12:11;0.43;;;0.30;;
27857;SDS011;16852;51.446;6.528;2023-01-16T05:14:12;1.23;;;0.52;;
27857;SDS011;16852;51.446;6.528;2023-01-16T05:16:12;1.10;;;0.38;;
27857;SDS011;16852;51.446;6.528;2023-01-16T05:18:13;2.97;;;0.50;;
27857;SDS011;16852;51.446;6.528;2023-01-16T05:20:14;1.77;;;0.80;;
27857;SDS011;16852;51.446;6.528;2023-01-16T05:22:14;2.22;;;0.63;;
27857;SDS011;16852;51.446;6.528;2023-01-16T05:24:15;2.15;;;0.75;;
27857;SDS011;16852;51.446;6.528;2023-01-16T05:26:15;1.67;;;0.73;;
27857;SDS011;16852;51.446;6.528;2023-01-16T05:28:16;3.63;;;0.70;;
27857;SDS011;16852;51.446;6.528;2023-01-16T05:30:16;2.03;;;0.77;;
27857;SDS011;16852;51.446;6.528;2023-01-16T05:32:17;4.95;;;0.88;;
27857;SDS011;16852;51.446;6.528;2023-01-16T05:34:18;2.42;;;0.70;;
27857;SDS011;16852;51.446;6.528;2023-01-16T05:36:18;2.47;;;0.70;;
27857;SDS011;16852;51.446;6.528;2023-01-16T05:38:19;3.60;;;0.80;;
27857;SDS011;16852;51.446;6.528;2023-01-16T05:40:20;4.20;;;1.17;;
27857;SDS011;16852;51.446;6.528;2023-01-16T05:42:21;2.65;;;0.85;;
27857;SDS011;16852;51.446;6.528;2023-01-16T05:44:21;5.53;;;1.52;;
27857;SDS011;16852;51.446;6.528;2023-01-16T05:46:22;3.67;;;1.00;;
27857;SDS011;16852;51.446;6.528;2023-01-16T05:48:22;5.47;;;1.25;;
27857;SDS011;16852;51.446;6.528;2023-01-16T05:50:23;5.15;;;1.40;;
27857;SDS011;16852;51.446;6.528;2023-01-16T05:52:24;6.55;;;1.60;;
27857;SDS011;16852;51.446;6.528;2023-01-16T05:54:25;3.85;;;1.10;;
27857;SDS011;16852;51.446;6.528;2023-01-16T05:56:26;8.70;;;1.88;;
27857;SDS011;16852;51.446;6.528;2023-01-16T05:58:26;5.13;;;1.27;;
27857;SDS011;16852;51.446;6.528;2023-01-16T06:00:27;6.03;;;1.25;;
27857;SDS011;16852;51.446;6.528;2023-01-16T06:02:27;4.43;;;1.30;;
27857;SDS011;16852;51.446;6.528;2023-01-16T06:04:28;4.57;;;1.13;;
27857;SDS011;16852;51.446;6.528;2023-01-16T06:06:29;2.35;;;0.98;;
27857;SDS011;16852;51.446;6.528;2023-01-16T06:08:29;4.03;;;1.10;;
27857;SDS011;16852;51.446;6.528;2023-01-16T06:10:32;2.90;;;1.48;;
27857;SDS011;16852;51.446;6.528;2023-01-16T06:12:32;2.88;;;1.13;;
27857;SDS011;16852;51.446;6.528;2023-01-16T06:14:34;4.47;;;1.10;;
27857;SDS011;16852;51.446;6.528;2023-01-16T06:16:34;1.70;;;0.75;;
27857;SDS011;16852;51.446;6.528;2023-01-16T06:18:35;2.45;;;0.95;;
27857;SDS011;16852;51.446;6.528;2023-01-16T06:20:36;3.00;;;1.10;;
27857;SDS011;16852;51.446;6.528;2023-01-16T06:22:36;4.57;;;1.23;;
27857;SDS011;16852;51.446;6.528;2023-01-16T06:24:37;4.30;;;1.05;;
27857;SDS011;16852;51.446;6.528;2023-01-16T06:26:38;3.10;;;1.17;;
27857;SDS011;16852;51.446;6.528;2023-01-16T06:28:39;1.98;;;0.73;;
27857;SDS011;16852;51.446;6.528;2023-01-16T06:30:39;4.00;;;1.10;;
27857;SDS011;16852;51.446;6.528;2023-01-16T06:32:40;5.22;;;1.60;;
27857;SDS011;16852;51.446;6.528;2023-01-16T06:34:40;3.55;;;1.17;;
27857;SDS011;16852;51.446;6.528;2023-01-16T06:36:41;1.60;;;0.65;;
27857;SDS011;16852;51.446;6.528;2023-01-16T06:38:42;4.57;;;0.90;;
27857;SDS011;16852;51.446;6.528;2023-01-16T06:40:43;2.10;;;0.57;;
27857;SDS011;16852;51.446;6.528;2023-01-16T06:42:44;2.00;;;0.70;;
27857;SDS011;16852;51.446;6.528;2023-01-16T06:44:45;2.15;;;0.93;;
27857;SDS011;16852;51.446;6.528;2023-01-16T06:46:45;3.28;;;0.85;;
27857;SDS011;16852;51.446;6.528;2023-01-16T06:48:46;2.70;;;0.90;;
27857;SDS011;16852;51.446;6.528;2023-01-16T06:50:46;5.53;;;0.70;;
27857;SDS011;16852;51.446;6.528;2023-01-16T06:52:47;3.72;;;0.77;;
27857;SDS011;16852;51.446;6.528;2023-01-16T06:54:49;3.53;;;0.90;;
27857;SDS011;16852;51.446;6.528;2023-01-16T06:56:49;3.17;;;0.98;;
27857;SDS011;16852;51.446;6.528;2023-01-16T06:58:50;2.42;;;0.70;;
27857;SDS011;16852;51.446;6.528;2023-01-16T07:00:50;2.83;;;0.80;;
27857;SDS011;16852;51.446;6.528;2023-01-16T07:02:52;2.70;;;0.88;;
27857;SDS011;16852;51.446;6.528;2023-01-16T07:04:54;3.67;;;0.60;;
27857;SDS011;16852;51.446;6.528;2023-01-16T07:06:55;2.97;;;0.77;;
27857;SDS011;16852;51.446;6.528;2023-01-16T07:08:55;5.70;;;1.08;;
27857;SDS011;16852;51.446;6.528;2023-01-16T07:10:59;2.90;;;0.80;;
27857;SDS011;16852;51.446;6.528;2023-01-16T07:13:00;1.98;;;0.75;;
27857;SDS011;16852;51.446;6.528;2023-01-16T07:15:01;2.88;;;0.85;;
27857;SDS011;16852;51.446;6.528;2023-01-16T07:17:20;3.25;;;0.80;;
27857;SDS011;16852;51.446;6.528;2023-01-16T07:19:40;2.25;;;0.70;;
27857;SDS011;16852;51.446;6.528;2023-01-16T07:21:59;2.70;;;0.98;;
27857;SDS011;16852;51.446;6.528;2023-01-16T07:24:20;2.63;;;0.98;;
27857;SDS011;16852;51.446;6.528;2023-01-16T07:26:23;3.83;;;0.90;;
27857;SDS011;16852;51.446;6.528;2023-01-16T07:28:24;5.45;;;0.75;;
27857;SDS011;16852;51.446;6.528;2023-01-16T07:30:25;5.35;;;1.33;;
27857;SDS011;16852;51.446;6.528;2023-01-16T07:32:26;4.00;;;0.90;;
27857;SDS011;16852;51.446;6.528;2023-01-16T07:34:26;2.65;;;0.88;;
27857;SDS011;16852;51.446;6.528;2023-01-16T07:36:27;4.47;;;0.90;;
27857;SDS011;16852;51.446;6.528;2023-01-16T07:38:28;4.97;;;0.73;;
27857;SDS011;16852;51.446;6.528;2023-01-16T07:40:28;4.43;;;0.80;;
27857;SDS011;16852;51.446;6.528;2023-01-16T07:42:29;2.72;;;1.00;;
27857;SDS011;16852;51.446;6.528;2023-01-16T07:44:30;5.43;;;1.15;;
27857;SDS011;16852;51.446;6.528;2023-01-16T07:46:30;4.03;;;1.13;;
27857;SDS011;16852;51.446;6.528;2023-01-16T07:48:31;13.88;;;1.58;;
27857;SDS011;16852;51.446;6.528;2023-01-16T07:50:32;2.35;;;0.82;;
27857;SDS011;16852;51.446;6.528;2023-01-16T07:52:33;3.47;;;1.00;;
27857;SDS011;16852;51.446;6.528;2023-01-16T07:54:33;2.28;;;0.82;;
27857;SDS011;16852;51.446;6.528;2023-01-16T07:56:36;2.67;;;0.82;;
27857;SDS011;16852;51.446;6.528;2023-01-16T07:58:36;5.18;;;1.27;;
27857;SDS011;16852;51.446;6.528;2023-01-16T08:02:39;2.97;;;1.00;;
27857;SDS011;16852;51.446;6.528;2023-01-16T08:04:40;3.83;;;1.50;;
27857;SDS011;16852;51.446;6.528;2023-01-16T08:06:41;1.98;;;0.88;;
27857;SDS011;16852;51.446;6.528;2023-01-16T08:08:44;5.15;;;1.20;;
27857;SDS011;16852;51.446;6.528;2023-01-16T08:10:45;2.83;;;0.93;;
27857;SDS011;16852;51.446;6.528;2023-01-16T08:12:45;2.72;;;0.85;;
27857;SDS011;16852;51.446;6.528;2023-01-16T08:14:46;2.90;;;1.13;;
27857;SDS011;16852;51.446;6.528;2023-01-16T08:16:46;2.83;;;0.90;;
27857;SDS011;16852;51.446;6.528;2023-01-16T08:18:47;4.38;;;1.30;;
27857;SDS011;16852;51.446;6.528;2023-01-16T08:20:48;4.82;;;1.13;;
27857;SDS011;16852;51.446;6.528;2023-01-16T08:22:49;5.63;;;1.35;;
27857;SDS011;16852;51.446;6.528;2023-01-16T08:24:51;4.72;;;0.82;;
27857;SDS011;16852;51.446;6.528;2023-01-16T08:26:51;4.95;;;1.20;;
27857;SDS011;16852;51.446;6.528;2023-01-16T08:28:52;2.45;;;0.98;;
27857;SDS011;16852;51.446;6.528;2023-01-16T08:30:53;2.58;;;1.05;;
27857;SDS011;16852;51.446;6.528;2023-01-16T08:33:00;4.00;;;0.93;;
27857;SDS011;16852;51.446;6.528;2023-01-16T08:35:01;3.20;;;0.90;;
27857;SDS011;16852;51.446;6.528;2023-01-16T08:37:05;3.80;;;0.98;;
27857;SDS011;16852;51.446;6.528;2023-01-16T08:39:08;4.82;;;1.05;;
27857;SDS011;16852;51.446;6.528;2023-01-16T08:41:11;4.78;;;1.20;;
27857;SDS011;16852;51.446;6.528;2023-01-16T08:43:30;2.35;;;0.90;;
27857;SDS011;16852;51.446;6.528;2023-01-16T08:45:49;2.83;;;0.75;;
27857;SDS011;16852;51.446;6.528;2023-01-16T08:48:09;2.28;;;0.95;;
27857;SDS011;16852;51.446;6.528;2023-01-16T08:50:29;3.95;;;1.10;;
27857;SDS011;16852;51.446;6.528;2023-01-16T08:52:48;5.25;;;1.15;;
27857;SDS011;16852;51.446;6.528;2023-01-16T08:54:49;3.03;;;0.82;;
27857;SDS011;16852;51.446;6.528;2023-01-16T08:56:49;2.95;;;1.25;;
27857;SDS011;16852;51.446;6.528;2023-01-16T08:58:50;3.22;;;0.93;;
27857;SDS011;16852;51.446;6.528;2023-01-16T09:00:50;3.10;;;1.10;;
27857;SDS011;16852;51.446;6.528;2023-01-16T09:02:52;3.08;;;1.00;;
27857;SDS011;16852;51.446;6.528;2023-01-16T09:04:53;3.78;;;1.00;;
27857;SDS011;16852;51.446;6.528;2023-01-16T09:06:54;4.97;;;1.52;;
27857;SDS011;16852;51.446;6.528;2023-01-16T09:08:55;4.35;;;1.13;;
27857;SDS011;16852;51.446;6.528;2023-01-16T09:10:56;3.47;;;1.42;;
27857;SDS011;16852;51.446;6.528;2023-01-16T09:13:15;3.08;;;1.17;;
27857;SDS011;16852;51.446;6.528;2023-01-16T09:15:34;8.35;;;1.00;;
27857;SDS011;16852;51.446;6.528;2023-01-16T09:17:35;6.28;;;1.13;;
27857;SDS011;16852;51.446;6.528;2023-01-16T09:19:35;3.30;;;1.13;;
27857;SDS011;16852;51.446;6.528;2023-01-16T09:21:36;3.72;;;1.08;;
27857;SDS011;16852;51.446;6.528;2023-01-16T09:23:37;7.35;;;1.48;;
27857;SDS011;16852;51.446;6.528;2023-01-16T09:25:37;2.75;;;1.10;;
27857;SDS011;16852;51.446;6.528;2023-01-16T09:27:38;4.47;;;0.98;;
27857;SDS011;16852;51.446;6.528;2023-01-16T09:29:39;9.57;;;1.17;;
27857;SDS011;16852;51.446;6.528;2023-01-16T09:31:40;4.83;;;1.10;;
27857;SDS011;16852;51.446;6.528;2023-01-16T09:33:41;3.00;;;0.88;;
27857;SDS011;16852;51.446;6.528;2023-01-16T09:35:41;3.85;;;0.98;;
27857;SDS011;16852;51.446;6.528;2023-01-16T09:37:42;2.53;;;0.90;;
27857;SDS011;16852;51.446;6.528;2023-01-16T09:39:44;2.78;;;0.80;;
27857;SDS011;16852;51.446;6.528;2023-01-16T09:44:22;4.63;;;0.93;;
27857;SDS011;16852;51.446;6.528;2023-01-16T09:46:24;3.72;;;1.10;;
27857;SDS011;16852;51.446;6.528;2023-01-16T09:48:31;5.07;;;1.48;;
27857;SDS011;16852;51.446;6.528;2023-01-16T09:50:35;4.07;;;0.98;;
27857;SDS011;16852;51.446;6.528;2023-01-16T09:52:36;3.80;;;0.88;;
27857;SDS011;16852;51.446;6.528;2023-01-16T09:54:56;1.67;;;0.80;;
27857;SDS011;16852;51.446;6.528;2023-01-16T09:57:19;6.07;;;1.38;;
27857;SDS011;16852;51.446;6.528;2023-01-16T09:59:40;4.43;;;0.80;;
27857;SDS011;16852;51.446;6.528;2023-01-16T10:01:53;1.48;;;0.55;;
27857;SDS011;16852;51.446;6.528;2023-01-16T10:04:21;3.63;;;1.52;;
27857;SDS011;16852;51.446;6.528;2023-01-16T10:08:37;4.47;;;0.82;;
27857;SDS011;16852;51.446;6.528;2023-01-16T10:10:54;2.15;;;0.60;;
27857;SDS011;16852;51.446;6.528;2023-01-16T10:15:32;3.05;;;0.93;;
27857;SDS011;16852;51.446;6.528;2023-01-16T10:17:58;7.15;;;0.90;;
27857;SDS011;16852;51.446;6.528;2023-01-16T10:25:11;2.55;;;0.43;;
27857;SDS011;16852;51.446;6.528;2023-01-16T10:30:00;1.95;;;0.65;;
27857;SDS011;16852;51.446;6.528;2023-01-16T10:34:31;2.47;;;0.40;;
27857;SDS011;16852;51.446;6.528;2023-01-16T10:36:40;2.65;;;0.57;;
27857;SDS011;16852;51.446;6.528;2023-01-16T10:38:44;2.28;;;0.70;;
27857;SDS011;16852;51.446;6.528;2023-01-16T10:40:50;2.63;;;0.52;;
27857;SDS011;16852;51.446;6.528;2023-01-16T10:42:56;2.38;;;0.70;;
27857;SDS011;16852;51.446;6.528;2023-01-16T10:45:21;1.73;;;0.65;;
27857;SDS011;16852;51.446;6.528;2023-01-16T10:47:43;1.38;;;0.80;;
27857;SDS011;16852;51.446;6.528;2023-01-16T10:50:03;1.77;;;0.40;;
27857;SDS011;16852;51.446;6.528;2023-01-16T10:52:05;2.67;;;0.70;;
27857;SDS011;16852;51.446;6.528;2023-01-16T10:54:06;0.60;;;0.47;;
27857;SDS011;16852;51.446;6.528;2023-01-16T10:56:06;3.25;;;0.80;;
27857;SDS011;16852;51.446;6.528;2023-01-16T10:58:16;1.30;;;0.70;;
27857;SDS011;16852;51.446;6.528;2023-01-16T11:00:32;1.88;;;0.60;;
27857;SDS011;16852;51.446;6.528;2023-01-16T11:02:42;3.20;;;0.90;;
27857;SDS011;16852;51.446;6.528;2023-01-16T11:04:46;0.70;;;0.35;;
27857;SDS011;16852;51.446;6.528;2023-01-16T11:06:46;4.60;;;1.00;;
27857;SDS011;16852;51.446;6.528;2023-01-16T11:08:48;2.92;;;0.82;;
27857;SDS011;16852;51.446;6.528;2023-01-16T11:10:53;1.35;;;0.65;;
27857;SDS011;16852;51.446;6.528;2023-01-16T11:12:54;2.38;;;0.85;;
27857;SDS011;16852;51.446;6.528;2023-01-16T11:15:15;2.05;;;0.80;;
27857;SDS011;16852;51.446;6.528;2023-01-16T11:17:36;1.23;;;0.50;;
27857;SDS011;16852;51.446;6.528;2023-01-16T11:19:55;1.63;;;0.85;;
27857;SDS011;16852;51.446;6.528;2023-01-16T11:21:59;2.03;;;1.00;;
27857;SDS011;16852;51.446;6.528;2023-01-16T11:24:15;1.33;;;0.75;;
27857;SDS011;16852;51.446;6.528;2023-01-16T11:26:23;2.28;;;0.80;;
27857;SDS011;16852;51.446;6.528;2023-01-16T11:28:26;1.83;;;0.70;;
27857;SDS011;16852;51.446;6.528;2023-01-16T11:30:31;1.55;;;0.88;;
27857;SDS011;16852;51.446;6.528;2023-01-16T11:32:34;0.70;;;0.60;;
27857;SDS011;16852;51.446;6.528;2023-01-16T11:34:38;1.45;;;0.43;;
27857;SDS011;16852;51.446;6.528;2023-01-16T11:36:47;1.25;;;0.57;;
27857;SDS011;16852;51.446;6.528;2023-01-16T11:38:48;2.38;;;0.70;;
27857;SDS011;16852;51.446;6.528;2023-01-16T11:40:49;2.15;;;0.55;;
27857;SDS011;16852;51.446;6.528;2023-01-16T11:42:55;0.98;;;0.50;;
27857;SDS011;16852;51.446;6.528;2023-01-16T11:45:17;0.63;;;0.50;;
27857;SDS011;16852;51.446;6.528;2023-01-16T11:47:42;1.83;;;0.68;;
27857;SDS011;16852;51.446;6.528;2023-01-16T11:49:45;0.30;;;0.30;;
27857;SDS011;16852;51.446;6.528;2023-01-16T11:51:53;1.85;;;0.52;;
27857;SDS011;16852;51.446;6.528;2023-01-16T11:53:54;3.35;;;0.52;;
27857;SDS011;16852;51.446;6.528;2023-01-16T12:01:17;1.38;;;0.57;;
27857;SDS011;16852;51.446;6.528;2023-01-16T12:03:31;0.73;;;0.50;;
27857;SDS011;16852;51.446;6.528;2023-01-16T12:05:49;1.70;;;0.57;;
27857;SDS011;16852;51.446;6.528;2023-01-16T12:08:17;1.08;;;0.50;;
27857;SDS011;16852;51.446;6.528;2023-01-16T12:12:47;1.70;;;0.80;;
27857;SDS011;16852;51.446;6.528;2023-01-16T12:15:23;1.80;;;0.68;;
27857;SDS011;16852;51.446;6.528;2023-01-16T12:22:30;1.63;;;0.82;;
27857;SDS011;16852;51.446;6.528;2023-01-16T12:24:49;2.47;;;0.88;;
27857;SDS011;16852;51.446;6.528;2023-01-16T12:31:45;2.20;;;0.68;;
27857;SDS011;16852;51.446;6.528;2023-01-16T12:34:01;1.60;;;0.68;;
27857;SDS011;16852;51.446;6.528;2023-01-16T12:38:45;1.33;;;0.50;;
27857;SDS011;16852;51.446;6.528;2023-01-16T12:41:09;1.88;;;0.93;;
27857;SDS011;16852;51.446;6.528;2023-01-16T12:43:43;2.67;;;0.63;;
27857;SDS011;16852;51.446;6.528;2023-01-16T12:46:08;1.50;;;0.73;;
27857;SDS011;16852;51.446;6.528;2023-01-16T12:57:57;2.28;;;1.00;;
27857;SDS011;16852;51.446;6.528;2023-01-16T12:59:42;2.67;;;0.82;;
27857;SDS011;16852;51.446;6.528;2023-01-16T13:01:56;3.00;;;0.95;;
27857;SDS011;16852;51.446;6.528;2023-01-16T13:04:11;1.65;;;0.80;;
27857;SDS011;16852;51.446;6.528;2023-01-16T13:06:15;4.10;;;1.35;;
27857;SDS011;16852;51.446;6.528;2023-01-16T13:08:38;3.13;;;0.90;;
27857;SDS011;16852;51.446;6.528;2023-01-16T13:10:44;3.63;;;0.93;;
27857;SDS011;16852;51.446;6.528;2023-01-16T13:13:21;1.65;;;0.80;;
27857;SDS011;16852;51.446;6.528;2023-01-16T13:15:44;2.92;;;1.15;;
27857;SDS011;16852;51.446;6.528;2023-01-16T13:20:03;1.63;;;0.85;;
27857;SDS011;16852;51.446;6.528;2023-01-16T13:22:19;3.25;;;0.98;;
27857;SDS011;16852;51.446;6.528;2023-01-16T13:24:22;1.15;;;0.65;;
27857;SDS011;16852;51.446;6.528;2023-01-16T13:26:29;2.90;;;0.75;;
27857;SDS011;16852;51.446;6.528;2023-01-16T13:30:52;1.58;;;0.93;;
27857;SDS011;16852;51.446;6.528;2023-01-16T13:35:06;1.30;;;0.77;;
27857;SDS011;16852;51.446;6.528;2023-01-16T13:39:39;1.35;;;0.50;;
27857;SDS011;16852;51.446;6.528;2023-01-16T13:42:04;1.55;;;0.70;;
27857;SDS011;16852;51.446;6.528;2023-01-16T13:44:24;4.20;;;0.90;;
27857;SDS011;16852;51.446;6.528;2023-01-16T13:46:49;3.80;;;0.90;;
27857;SDS011;16852;51.446;6.528;2023-01-16T13:48:53;3.53;;;1.00;;
27857;SDS011;16852;51.446;6.528;2023-01-16T13:50:59;2.80;;;0.70;;
27857;SDS011;16852;51.446;6.528;2023-01-16T13:53:20;2.15;;;0.70;;
27857;SDS011;16852;51.446;6.528;2023-01-16T13:55:33;2.30;;;0.60;;
27857;SDS011;16852;51.446;6.528;2023-01-16T13:57:35;1.40;;;0.70;;
27857;SDS011;16852;51.446;6.528;2023-01-16T14:02:01;1.52;;;0.80;;
27857;SDS011;16852;51.446;6.528;2023-01-16T14:06:21;1.55;;;0.82;;
27857;SDS011;16852;51.446;6.528;2023-01-16T14:08:27;5.22;;;0.90;;
27857;SDS011;16852;51.446;6.528;2023-01-16T14:13:12;2.08;;;1.05;;
27857;SDS011;16852;51.446;6.528;2023-01-16T14:15:21;1.70;;;0.80;;
27857;SDS011;16852;51.446;6.528;2023-01-16T14:19:59;1.48;;;0.77;;
27857;SDS011;16852;51.446;6.528;2023-01-16T14:22:01;3.15;;;1.20;;
27857;SDS011;16852;51.446;6.528;2023-01-16T14:24:15;2.97;;;0.90;;
27857;SDS011;16852;51.446;6.528;2023-01-16T14:26:21;4.38;;;0.95;;
27857;SDS011;16852;51.446;6.528;2023-01-16T14:28:34;2.53;;;0.80;;
27857;SDS011;16852;51.446;6.528;2023-01-16T14:30:37;1.35;;;0.70;;